Time;durP1;ratioP1;P1;durP2;ratioP2;P2;SDS_P1;SDS_P2;PMS_P1;PMS_P2;Temp;Humidity;BMP_temperature;BMP_pressure;BME280_temperature;BME280_humidity;BME280_pressure;Samples;Min_cycle;Max_cycle;Signal;HPM_P1;HPM_P2
2023/07/18 00:02:37;;;;;;;3.67;1.85;;;;;;;15.59;49.31;100537.50;10427418;28;20072;-59
2023/07/18 00:07:41;;;;;;;1.35;0.80;;;;;;;15.50;49.37;100546.09;10426123;28;20071;-59
2023/07/18 00:12:43;;;;;;;3.25;1.50;;;;;;;15.38;49.81;100544.28;10425061;28;20045;-58
2023/07/18 00:17:45;;;;;;;2.53;1.20;;;;;;;15.32;49.75;100526.25;10427094;28;20785;-59
2023/07/18 00:22:49;;;;;;;1.90;1.00;;;;;;;15.32;49.86;100531.53;10423649;28;20052;-59
2023/07/18 00:27:53;;;;;;;3.45;1.13;;;;;;;15.25;50.32;100525.00;10424129;28;20442;-59
2023/07/18 00:32:59;;;;;;;1.88;1.00;;;;;;;15.21;50.22;100529.63;10425254;28;20063;-59
2023/07/18 00:38:01;;;;;;;1.80;1.00;;;;;;;15.18;50.34;100521.09;10424655;28;20045;-59
2023/07/18 00:43:03;;;;;;;2.58;1.20;;;;;;;15.00;50.67;100530.28;10424001;28;20570;-59
2023/07/18 00:48:05;;;;;;;0.77;0.75;;;;;;;14.95;50.48;100529.75;10423850;28;20055;-58
2023/07/18 00:53:07;;;;;;;1.73;1.20;;;;;;;14.88;50.52;100525.84;10422538;28;20306;-58
2023/07/18 00:58:10;;;;;;;1.73;0.90;;;;;;;14.64;51.15;100532.75;10424880;28;20099;-59
2023/07/18 01:03:12;;;;;;;1.75;1.00;;;;;;;14.64;51.16;100527.47;10422378;28;20959;-58
2023/07/18 01:08:15;;;;;;;1.58;0.98;;;;;;;14.57;51.33;100535.78;10421769;28;20041;-59
2023/07/18 01:13:17;;;;;;;1.88;1.27;;;;;;;14.38;51.63;100534.47;10421409;28;20132;-59
2023/07/18 01:18:19;;;;;;;2.53;1.17;;;;;;;14.35;51.66;100524.97;10421452;28;20365;-59
2023/07/18 01:23:21;;;;;;;1.45;0.90;;;;;;;14.31;51.86;100520.00;10406363;28;20056;-58
2023/07/18 01:28:24;;;;;;;1.40;0.95;;;;;;;14.21;52.20;100526.81;10420646;28;20049;-58
2023/07/18 01:33:29;;;;;;;2.67;1.27;;;;;;;14.21;52.35;100529.44;10437597;28;20484;-58
2023/07/18 01:38:31;;;;;;;1.83;1.20;;;;;;;14.19;52.41;100512.91;10423297;28;20123;-58
2023/07/18 01:43:34;;;;;;;2.13;1.00;;;;;;;14.06;52.67;100512.91;10419621;28;20084;-58
2023/07/18 01:48:37;;;;;;;1.33;0.90;;;;;;;14.04;52.61;100513.94;10421056;28;20313;-59
2023/07/18 01:53:41;;;;;;;1.92;1.13;;;;;;;13.93;52.73;100525.13;10420557;28;20044;-58
2023/07/18 01:58:44;;;;;;;1.63;1.08;;;;;;;13.91;52.82;100520.91;10419149;28;20052;-58
2023/07/18 02:03:46;;;;;;;1.50;0.93;;;;;;;13.79;53.03;100522.53;10425382;28;20140;-58
2023/07/18 02:08:49;;;;;;;3.88;0.93;;;;;;;13.72;53.36;100516.81;10427440;28;20049;-58
2023/07/18 02:13:51;;;;;;;1.23;0.93;;;;;;;13.58;53.57;100513.38;10426981;28;20037;-58
2023/07/18 02:18:53;;;;;;;2.08;1.10;;;;;;;13.04;54.16;100519.38;10427398;28;20505;-59
2023/07/18 02:23:55;;;;;;;1.50;1.05;;;;;;;13.16;54.57;100518.63;10430023;28;20276;-58
2023/07/18 02:28:57;;;;;;;1.95;1.08;;;;;;;13.25;54.33;100515.47;10434653;28;20045;-58
2023/07/18 02:33:59;;;;;;;4.25;1.67;;;;;;;13.33;54.26;100514.03;10435013;28;20071;-58
2023/07/18 02:39:03;;;;;;;1.80;0.93;;;;;;;13.29;54.33;100509.91;10436703;28;20120;-59
2023/07/18 02:44:05;;;;;;;2.00;1.20;;;;;;;12.77;54.80;100504.34;10435785;28;20080;-58
2023/07/18 02:49:09;;;;;;;1.45;1.00;;;;;;;12.83;54.76;100513.63;10434306;28;20045;-58
2023/07/18 02:54:11;;;;;;;1.92;1.00;;;;;;;12.96;54.76;100520.66;10433543;28;20432;-58
2023/07/18 02:59:14;;;;;;;2.05;1.02;;;;;;;12.98;54.77;100518.81;10435865;28;20570;-58
2023/07/18 03:04:16;;;;;;;2.33;1.02;;;;;;;12.92;54.68;100527.03;10432847;28;20053;-58
2023/07/18 03:09:20;;;;;;;3.70;1.30;;;;;;;12.88;55.13;100535.22;10431559;28;20432;-58
2023/07/18 03:14:22;;;;;;;2.15;1.23;;;;;;;12.68;55.03;100536.38;10431234;28;20067;-59
2023/07/18 03:19:26;;;;;;;1.92;1.00;;;;;;;12.68;55.05;100527.69;10413970;28;20055;-58
2023/07/18 03:24:28;;;;;;;3.35;1.20;;;;;;;12.65;55.20;100526.09;10431581;28;20037;-58
2023/07/18 03:29:30;;;;;;;1.85;1.20;;;;;;;12.57;55.20;100519.59;10430306;28;20080;-59
2023/07/18 03:34:32;;;;;;;2.15;1.10;;;;;;;12.60;55.52;100522.88;10429829;28;20045;-58
2023/07/18 03:39:34;;;;;;;2.08;1.10;;;;;;;12.58;55.47;100518.63;10427462;28;20049;-59
2023/07/18 03:44:38;;;;;;;3.20;1.15;;;;;;;12.59;55.32;100512.47;10428221;28;20098;-59
2023/07/18 03:49:40;;;;;;;1.88;0.90;;;;;;;12.68;55.31;100522.44;10427211;28;20080;-58
2023/07/18 03:54:43;;;;;;;1.33;1.00;;;;;;;12.48;55.24;100513.09;10418994;28;20522;-58
2023/07/18 03:59:44;;;;;;;1.33;1.00;;;;;;;12.48;55.64;100517.47;10427029;28;20412;-58
2023/07/18 04:04:47;;;;;;;2.30;1.35;;;;;;;12.35;55.45;100514.75;10427557;28;20051;-58
2023/07/18 04:09:49;;;;;;;2.03;1.15;;;;;;;12.31;55.84;100518.50;10424886;28;20057;-59
2023/07/18 04:14:51;;;;;;;1.52;1.05;;;;;;;12.46;55.75;100511.47;10425978;28;20455;-58
2023/07/18 04:19:58;;;;;;;4.18;1.20;;;;;;;12.66;56.03;100511.19;10426711;28;20127;-58
2023/07/18 04:25:00;;;;;;;1.38;1.08;;;;;;;13.06;55.69;100510.47;10427717;28;20151;-58
2023/07/18 04:30:02;;;;;;;2.80;1.25;;;;;;;15.54;51.90;100505.38;10425813;28;20052;-58
2023/07/18 04:35:06;;;;;;;2.03;1.10;;;;;;;17.96;47.70;100492.84;10426910;28;20053;-59
2023/07/18 04:40:08;;;;;;;1.45;0.98;;;;;;;19.41;44.42;100485.78;10424110;28;20516;-59
2023/07/18 04:45:11;;;;;;;1.80;1.15;;;;;;;20.22;42.96;100482.88;10395172;28;20055;-59
2023/07/18 04:50:13;;;;;;;1.58;1.10;;;;;;;20.99;41.70;100487.16;10423592;28;20080;-59
2023/07/18 04:55:15;;;;;;;1.98;1.20;;;;;;;22.23;39.62;100477.66;10420028;28;20136;-59
2023/07/18 05:00:17;;;;;;;3.10;1.10;;;;;;;23.85;37.61;100464.31;10426284;28;20528;-59
2023/07/18 05:05:20;;;;;;;2.10;0.90;;;;;;;24.88;35.90;100458.34;10426518;28;20056;-59
2023/07/18 05:10:22;;;;;;;1.52;0.90;;;;;;;25.84;34.26;100447.25;10428587;28;20513;-59
2023/07/18 05:15:24;;;;;;;1.65;1.10;;;;;;;26.56;33.21;100443.25;10427864;28;20049;-59
2023/07/18 05:20:26;;;;;;;4.97;1.02;;;;;;;26.95;32.23;100448.38;10427822;28;20432;-59
2023/07/18 05:25:31;;;;;;;2.60;1.23;;;;;;;27.20;31.63;100448.97;10427259;28;20131;-59
2023/07/18 05:30:33;;;;;;;3.53;1.17;;;;;;;27.78;30.71;100442.66;10425336;28;20166;-59
2023/07/18 05:35:35;;;;;;;2.35;1.30;;;;;;;26.59;30.86;100447.38;10423191;28;20174;-59
2023/07/18 05:40:37;;;;;;;1.45;0.90;;;;;;;23.37;34.04;100464.16;10424818;28;20112;-59
2023/07/18 05:45:39;;;;;;;1.45;0.90;;;;;;;20.92;37.22;100475.44;10423455;28;20315;-59
2023/07/18 05:50:41;;;;;;;2.33;1.10;;;;;;;19.63;39.12;100469.66;10423607;28;20076;-58
2023/07/18 05:55:43;;;;;;;1.80;1.10;;;;;;;19.22;39.73;100467.13;10423981;28;20040;-59
2023/07/18 06:00:45;;;;;;;9.77;1.85;;;;;;;18.77;40.71;100469.25;10421209;28;20143;-58
2023/07/18 06:05:55;;;;;;;2.28;1.13;;;;;;;18.44;42.05;100478.25;10423928;28;20059;-58
2023/07/18 06:10:57;;;;;;;2.97;1.45;;;;;;;18.33;41.82;100458.94;10417589;28;20045;-58
2023/07/18 06:15:59;;;;;;;8.90;1.30;;;;;;;17.96;42.60;100449.66;10409951;28;20049;-58
2023/07/18 06:21:02;;;;;;;3.47;1.20;;;;;;;18.09;42.93;100439.75;10413941;28;20171;-59
2023/07/18 06:26:04;;;;;;;2.47;1.10;;;;;;;18.18;42.66;100441.66;10410449;28;20130;-58
2023/07/18 06:31:07;;;;;;;3.40;1.10;;;;;;;17.69;43.51;100445.66;10418696;28;20035;-58
2023/07/18 06:36:09;;;;;;;2.13;1.52;;;;;;;17.52;43.79;100432.13;10419171;28;20094;-58
2023/07/18 06:41:12;;;;;;;6.40;2.22;;;;;;;17.49;44.29;100430.56;10419672;28;20047;-58
2023/07/18 06:46:14;;;;;;;2.00;1.30;;;;;;;17.34;44.74;100431.81;10423245;28;20194;-58
2023/07/18 06:51:16;;;;;;;1.83;1.10;;;;;;;17.45;44.92;100423.84;10419890;28;20160;-58
2023/07/18 06:56:18;;;;;;;1.77;1.00;;;;;;;17.64;45.00;100424.06;10419160;28;20048;-58
2023/07/18 07:01:21;;;;;;;2.05;1.25;;;;;;;17.98;44.60;100421.25;10421790;28;20344;-58
2023/07/18 07:06:23;;;;;;;3.28;1.17;;;;;;;18.10;44.15;100417.59;10414627;28;20460;-58
2023/07/18 07:11:27;;;;;;;2.83;1.50;;;;;;;18.08;44.74;100416.88;10415858;28;20041;-58
2023/07/18 07:16:29;;;;;;;3.08;1.30;;;;;;;18.67;43.96;100404.78;10427919;28;20053;-58
2023/07/18 07:21:31;;;;;;;3.25;1.40;;;;;;;18.80;43.74;100405.41;10440614;28;20501;-58
2023/07/18 07:26:37;;;;;;;4.32;1.60;;;;;;;19.23;43.11;100395.44;10425108;28;20137;-58
2023/07/18 07:31:39;;;;;;;3.10;1.17;;;;;;;19.31;42.73;100397.41;10429350;28;20443;-59
2023/07/18 07:36:41;;;;;;;4.32;1.60;;;;;;;19.99;42.24;100391.22;10427663;28;20129;-60
2023/07/18 07:41:44;;;;;;;2.03;1.20;;;;;;;21.85;40.67;100371.41;10411756;28;20292;-60
2023/07/18 07:46:46;;;;;;;2.35;1.60;;;;;;;23.09;38.47;100363.94;10429002;28;20053;-60
2023/07/18 07:51:49;;;;;;;2.20;1.20;;;;;;;24.22;37.42;100357.84;10427634;28;20083;-60
2023/07/18 07:56:51;;;;;;;1.08;0.98;;;;;;;25.06;33.97;100351.94;10425541;28;20092;-61
2023/07/18 08:01:54;;;;;;;1.65;0.95;;;;;;;25.44;34.33;100343.06;10427783;28;20053;-60
2023/07/18 08:06:56;;;;;;;2.45;1.25;;;;;;;26.39;34.05;100331.72;10425570;28;20049;-60
2023/07/18 08:11:58;;;;;;;2.38;1.30;;;;;;;27.10;32.04;100338.25;10425287;28;20136;-60
2023/07/18 08:17:02;;;;;;;1.70;1.02;;;;;;;26.86;32.38;100322.47;10429942;28;20147;-60
2023/07/18 08:22:04;;;;;;;2.55;1.33;;;;;;;26.17;32.45;100313.00;10428164;28;20049;-60
2023/07/18 08:27:06;;;;;;;2.55;1.10;;;;;;;26.84;32.18;100306.56;10425814;28;20049;-60
2023/07/18 08:32:09;;;;;;;1.17;0.70;;;;;;;28.01;30.81;100306.19;10429317;28;20084;-60
2023/07/18 08:37:13;;;;;;;1.92;1.10;;;;;;;28.93;29.01;100297.69;10427092;28;20052;-61
2023/07/18 08:42:19;;;;;;;1.88;1.20;;;;;;;28.34;29.54;100277.69;10428610;28;20278;-61
2023/07/18 08:47:26;;;;;;;3.17;1.10;;;;;;;28.41;29.33;100281.25;10429465;28;20772;-61
2023/07/18 08:52:28;;;;;;;1.70;1.00;;;;;;;27.59;30.25;100290.06;10427269;28;20462;-61
2023/07/18 08:57:30;;;;;;;1.17;0.80;;;;;;;26.63;30.76;100282.34;10429406;28;20125;-61
2023/07/18 09:02:32;;;;;;;3.70;1.23;;;;;;;26.79;31.32;100265.22;10428027;28;20080;-60
2023/07/18 09:07:36;;;;;;;1.65;0.80;;;;;;;27.39;30.50;100269.22;10428039;28;20155;-61
2023/07/18 09:12:38;;;;;;;1.85;1.00;;;;;;;27.79;30.15;100242.75;10426962;28;20076;-60
2023/07/18 09:17:40;;;;;;;1.67;0.90;;;;;;;28.66;29.29;100228.59;10427987;28;20465;-60
2023/07/18 09:22:42;;;;;;;2.95;1.15;;;;;;;28.93;28.91;100206.13;10425722;28;20037;-61
2023/07/18 09:27:44;;;;;;;1.92;0.98;;;;;;;28.83;28.08;100204.81;10427729;28;20271;-60
2023/07/18 09:32:50;;;;;;;2.35;1.23;;;;;;;28.62;27.92;100191.53;10426541;28;20080;-61
2023/07/18 09:37:52;;;;;;;1.75;0.90;;;;;;;28.72;28.05;100183.91;10427678;28;20056;-61
2023/07/18 09:42:55;;;;;;;3.03;0.98;;;;;;;28.39;27.57;100191.00;10425383;28;20416;-61
2023/07/18 09:47:57;;;;;;;2.58;1.05;;;;;;;28.81;27.11;100163.81;10425566;28;20505;-61
2023/07/18 09:53:01;;;;;;;2.22;1.00;;;;;;;28.55;25.79;100174.50;10423400;28;20045;-61
2023/07/18 09:58:06;;;;;;;1.75;1.00;;;;;;;29.03;25.82;100181.53;10426414;28;20049;-61
2023/07/18 10:03:09;;;;;;;3.83;1.08;;;;;;;29.87;24.81;100182.56;10426617;28;20137;-60
2023/07/18 10:08:12;;;;;;;1.13;0.75;;;;;;;30.27;24.17;100194.13;10424172;28;21164;-60
2023/07/18 10:13:14;;;;;;;1.20;0.93;;;;;;;29.79;24.64;100197.09;10426673;28;20059;-60
2023/07/18 10:18:22;;;;;;;2.90;1.00;;;;;;;29.04;24.88;100194.78;10425262;28;20401;-60
2023/07/18 10:23:41;;;;;;;0.73;0.70;;;;;;;28.96;24.11;100205.75;10426728;28;20045;-60
2023/07/18 10:28:45;;;;;;;2.92;1.38;;;;;;;28.73;25.05;100212.47;10426659;28;20159;-60
2023/07/18 10:34:18;;;;;;;1.58;0.90;;;;;;;27.97;24.88;100214.31;10421500;28;20072;-60
2023/07/18 10:39:48;;;;;;;1.52;0.77;;;;;;;28.17;25.10;100209.91;10413386;28;20130;-60
2023/07/18 10:44:58;;;;;;;2.25;1.05;;;;;;;27.97;24.63;100205.44;10398593;28;20214;-60
2023/07/18 10:50:02;;;;;;;1.25;0.73;;;;;;;28.01;25.08;100164.50;10432263;28;20581;-60
2023/07/18 10:55:06;;;;;;;1.95;1.05;;;;;;;28.15;24.89;100122.41;10430000;28;20037;-60
2023/07/18 11:00:08;;;;;;;2.88;1.10;;;;;;;27.96;24.66;100099.75;10433154;28;20151;-60
2023/07/18 11:05:12;;;;;;;2.45;0.90;;;;;;;28.51;24.77;100114.91;10429461;28;20045;-60
2023/07/18 11:10:15;;;;;;;0.93;0.80;;;;;;;28.83;24.23;100106.06;10428351;28;20143;-60
2023/07/18 11:15:21;;;;;;;1.55;1.13;;;;;;;29.19;23.91;100096.78;10430735;28;20587;-60
2023/07/18 11:20:23;;;;;;;1.83;0.93;;;;;;;28.97;24.29;100067.34;10429818;28;20144;-60
2023/07/18 11:25:26;;;;;;;1.48;1.00;;;;;;;29.26;24.31;100055.31;10432258;28;20049;-60
2023/07/18 11:30:30;;;;;;;1.70;0.82;;;;;;;29.28;24.11;100084.75;10429451;28;20135;-60
2023/07/18 11:35:33;;;;;;;2.67;1.10;;;;;;;29.26;24.21;100090.34;10428005;28;20045;-60
2023/07/18 11:40:36;;;;;;;2.40;0.90;;;;;;;29.11;23.37;100105.06;10420103;28;20053;-60
2023/07/18 11:45:38;;;;;;;2.22;1.08;;;;;;;28.28;24.58;100100.91;10413347;28;20051;-61
2023/07/18 11:50:45;;;;;;;1.92;1.00;;;;;;;27.44;24.97;100088.69;10439499;28;20080;-60
2023/07/18 11:55:47;;;;;;;2.22;0.90;;;;;;;27.29;25.67;100085.25;10423269;28;20087;-60
2023/07/18 12:00:50;;;;;;;1.92;0.77;;;;;;;27.40;25.57;100066.72;10418933;28;20076;-60
2023/07/18 12:05:52;;;;;;;2.05;0.90;;;;;;;27.08;25.82;100058.41;10422166;28;20048;-60
2023/07/18 12:10:54;;;;;;;2.08;0.80;;;;;;;26.57;26.08;100060.41;10420036;28;20052;-60
2023/07/18 12:16:16;;;;;;;1.00;0.70;;;;;;;26.20;26.58;100055.28;10421302;28;20417;-60
2023/07/18 12:21:18;;;;;;;2.47;1.20;;;;;;;26.27;26.73;100023.97;10423811;28;20044;-60
2023/07/18 12:26:20;;;;;;;2.53;1.00;;;;;;;26.79;26.30;100008.44;10425020;28;20041;-60
2023/07/18 12:31:25;;;;;;;2.47;0.85;;;;;;;26.99;26.19;100003.22;10420929;28;20041;-60
2023/07/18 12:36:27;;;;;;;2.40;1.20;;;;;;;27.25;26.10;99990.81;10424085;28;20063;-60
2023/07/18 12:41:29;;;;;;;2.63;1.35;;;;;;;27.60;25.66;99972.81;10419045;28;20375;-60
2023/07/18 12:46:31;;;;;;;1.75;1.00;;;;;;;27.35;25.77;99983.25;10418822;28;20072;-60
2023/07/18 12:51:34;;;;;;;2.35;1.00;;;;;;;27.07;25.88;99979.75;10422746;28;20708;-60
2023/07/18 12:56:38;;;;;;;1.67;1.08;;;;;;;26.48;26.53;99978.41;10423214;28;20045;-60
2023/07/18 13:01:41;;;;;;;1.40;1.10;;;;;;;25.94;27.15;99964.63;10422472;28;20080;-60
2023/07/18 13:06:43;;;;;;;2.35;1.08;;;;;;;25.92;27.24;99957.81;10422615;28;20049;-60
2023/07/18 13:11:46;;;;;;;1.38;0.80;;;;;;;26.10;27.04;99942.16;10423901;28;20052;-60
2023/07/18 13:16:49;;;;;;;1.42;0.80;;;;;;;26.15;26.85;99924.47;10423596;28;20584;-60
2023/07/18 13:21:52;;;;;;;1.60;0.98;;;;;;;26.54;26.87;99923.97;10423058;28;20048;-60
2023/07/18 13:26:54;;;;;;;1.15;0.80;;;;;;;26.96;26.07;99926.59;10423912;28;20051;-60
2023/07/18 13:31:56;;;;;;;1.83;1.00;;;;;;;27.21;25.88;99925.13;10423471;28;20029;-60
2023/07/18 13:36:58;;;;;;;1.25;0.82;;;;;;;27.09;25.94;99929.34;10423089;28;20416;-60
2023/07/18 13:42:00;;;;;;;1.52;0.85;;;;;;;27.15;25.48;99925.91;10389970;28;20037;-60
2023/07/18 13:47:03;;;;;;;1.65;1.00;;;;;;;27.45;25.53;99916.56;10419312;28;20343;-60
2023/07/18 13:52:05;;;;;;;1.58;0.88;;;;;;;27.63;25.75;99901.75;10418155;28;20041;-60
2023/07/18 13:57:07;;;;;;;2.45;0.98;;;;;;;27.84;25.00;99896.22;10426734;28;20152;-60
2023/07/18 14:02:09;;;;;;;3.42;1.50;;;;;;;27.91;25.16;99889.03;10425790;28;20403;-60
2023/07/18 14:07:12;;;;;;;2.65;1.10;;;;;;;27.65;25.42;99886.25;10425415;28;20512;-60
2023/07/18 14:12:14;;;;;;;1.63;0.95;;;;;;;27.67;25.20;99884.19;10426141;28;20051;-60
2023/07/18 14:17:16;;;;;;;1.63;0.77;;;;;;;27.17;25.51;99891.63;10418152;28;20182;-60
2023/07/18 14:22:18;;;;;;;5.18;0.98;;;;;;;26.66;26.06;99884.91;10426212;28;20045;-60
2023/07/18 14:27:20;;;;;;;1.42;0.90;;;;;;;26.57;26.14;99881.53;10433001;28;20037;-60
2023/07/18 14:32:22;;;;;;;2.42;1.17;;;;;;;26.69;25.97;99863.03;10433994;28;20382;-60
2023/07/18 14:37:25;;;;;;;1.40;0.75;;;;;;;26.64;25.96;99862.81;10431385;28;20037;-60
2023/07/18 14:42:27;;;;;;;2.20;0.90;;;;;;;26.78;25.90;99853.81;10431309;28;20147;-61
2023/07/18 14:47:29;;;;;;;2.03;0.95;;;;;;;27.12;25.54;99851.09;10433583;28;20080;-60
2023/07/18 14:52:31;;;;;;;1.23;0.75;;;;;;;27.29;25.85;99830.97;10432188;28;20041;-60
2023/07/18 14:57:33;;;;;;;2.22;1.02;;;;;;;27.63;25.38;99829.19;10430634;28;20473;-60
2023/07/18 15:02:36;;;;;;;2.13;1.25;;;;;;;27.95;25.10;99815.00;10430462;28;20131;-60
2023/07/18 15:07:38;;;;;;;1.10;0.90;;;;;;;27.98;25.26;99801.13;10433179;28;20048;-60
2023/07/18 15:12:43;;;;;;;2.30;1.10;;;;;;;27.65;25.59;99803.75;10427956;28;20107;-60
2023/07/18 15:17:46;;;;;;;1.83;1.00;;;;;;;27.58;25.48;99796.72;10431021;28;20539;-60
2023/07/18 15:22:51;;;;;;;2.05;0.80;;;;;;;27.60;25.38;99791.97;10432080;28;20041;-60
2023/07/18 15:27:53;;;;;;;1.83;0.90;;;;;;;27.71;24.78;99791.38;10427604;28;20053;-60
2023/07/18 15:32:55;;;;;;;1.92;0.73;;;;;;;27.77;24.85;99788.72;10430553;28;20053;-60
2023/07/18 15:38:09;;;;;;;1.85;0.90;;;;;;;27.74;24.93;99777.56;10430090;28;20497;-60
2023/07/18 15:43:11;;;;;;;2.25;0.90;;;;;;;27.68;24.74;99781.03;10431772;28;20037;-60
2023/07/18 15:48:14;;;;;;;1.45;0.90;;;;;;;27.61;24.94;99767.59;10413844;28;20056;-60
2023/07/18 15:53:16;;;;;;;2.08;0.98;;;;;;;27.70;24.79;99762.84;10428920;28;20044;-60
2023/07/18 15:58:18;;;;;;;3.53;1.52;;;;;;;27.67;24.74;99749.84;10431960;28;20044;-60
2023/07/18 16:03:20;;;;;;;0.90;0.70;;;;;;;27.68;24.76;99746.94;10426664;28;20079;-60
2023/07/18 16:08:22;;;;;;;2.00;1.02;;;;;;;27.93;24.63;99742.59;10425189;28;20139;-60
2023/07/18 16:13:24;;;;;;;8.23;1.10;;;;;;;27.87;24.74;99734.56;10413278;28;20052;-60
2023/07/18 16:18:26;;;;;;;1.60;0.85;;;;;;;27.76;24.77;99716.38;10425997;28;20052;-60
2023/07/18 16:23:28;;;;;;;1.08;0.85;;;;;;;27.93;24.67;99720.28;10409332;28;20575;-60
2023/07/18 16:28:30;;;;;;;1.98;1.00;;;;;;;27.82;25.11;99711.00;10426374;28;20134;-60
2023/07/18 16:33:32;;;;;;;2.20;0.90;;;;;;;27.80;25.01;99712.22;10424849;28;20531;-60
2023/07/18 16:38:35;;;;;;;1.98;0.90;;;;;;;27.64;24.96;99699.19;10411058;28;20044;-60
2023/07/18 16:43:37;;;;;;;2.00;1.00;;;;;;;27.48;24.88;99698.53;10413771;28;20134;-60
2023/07/18 16:48:40;;;;;;;1.90;0.93;;;;;;;27.04;24.99;99684.81;10428537;28;20056;-60
2023/07/18 16:53:42;;;;;;;4.72;1.02;;;;;;;27.09;25.36;99674.31;10429785;28;20049;-60
2023/07/18 16:58:44;;;;;;;1.35;0.75;;;;;;;27.25;25.22;99673.13;10429917;28;20128;-60
2023/07/18 17:03:46;;;;;;;1.77;1.02;;;;;;;27.33;25.01;99665.69;10428872;28;20074;-60
2023/07/18 17:08:49;;;;;;;2.63;1.48;;;;;;;27.24;25.20;99664.22;10428104;28;20512;-60
2023/07/18 17:13:51;;;;;;;1.77;0.93;;;;;;;27.27;25.10;99665.69;10428378;28;20579;-60
2023/07/18 17:18:53;;;;;;;2.20;1.00;;;;;;;27.20;25.67;99671.03;10426339;28;20494;-61
2023/07/18 17:23:55;;;;;;;3.33;1.30;;;;;;;27.10;26.10;99664.38;10422197;28;20045;-63
2023/07/18 17:28:58;;;;;;;1.52;1.00;;;;;;;27.21;26.05;99653.09;10428733;28;20323;-61
2023/07/18 17:34:01;;;;;;;1.98;1.08;;;;;;;27.11;25.78;99653.47;10422867;28;20072;-63
2023/07/18 17:39:04;;;;;;;2.42;1.10;;;;;;;26.84;25.91;99646.38;10423342;28;20126;-63
2023/07/18 17:44:06;;;;;;;1.98;0.93;;;;;;;26.79;26.09;99643.50;10424469;28;20045;-63
2023/07/18 17:49:08;;;;;;;2.58;1.20;;;;;;;26.70;26.23;99642.00;10417852;28;20075;-63
2023/07/18 17:54:10;;;;;;;1.23;0.88;;;;;;;26.46;26.28;99648.72;10424196;28;20132;-63
2023/07/18 17:59:12;;;;;;;1.65;1.00;;;;;;;26.39;26.47;99636.28;10418722;28;20068;-63
2023/07/18 18:04:15;;;;;;;2.30;1.15;;;;;;;26.46;26.40;99645.22;10423497;28;20129;-62
2023/07/18 18:09:19;;;;;;;1.83;0.90;;;;;;;26.45;26.54;99632.81;10424365;28;20111;-63
2023/07/18 18:14:22;;;;;;;4.93;0.93;;;;;;;26.29;26.74;99635.84;10424652;28;20075;-63
2023/07/18 18:19:24;;;;;;;1.77;1.17;;;;;;;26.07;27.43;99628.94;10424196;28;20052;-63
2023/07/18 18:24:27;;;;;;;1.52;1.00;;;;;;;26.01;27.68;99632.41;10424461;28;20051;-63
2023/07/18 18:29:30;;;;;;;1.58;1.00;;;;;;;25.80;27.80;99634.09;10425201;28;20056;-63
2023/07/18 18:34:32;;;;;;;1.23;0.70;;;;;;;25.66;28.16;99635.03;10424957;28;20509;-63
2023/07/18 18:39:34;;;;;;;3.65;1.40;;;;;;;25.45;28.76;99643.09;10425900;28;20525;-55
2023/07/18 18:44:36;;;;;;;1.20;0.85;;;;;;;25.23;29.20;99641.44;10424080;28;20512;-60
2023/07/18 18:49:38;;;;;;;1.67;0.90;;;;;;;25.13;29.80;99638.28;10424738;28;20063;-60
2023/07/18 18:54:40;;;;;;;2.05;0.98;;;;;;;25.07;30.25;99641.72;10426615;28;20377;-60
2023/07/18 18:59:44;;;;;;;1.83;1.10;;;;;;;24.86;30.63;99637.19;10421588;28;20088;-60
2023/07/18 19:04:47;;;;;;;3.00;1.00;;;;;;;24.39;31.42;99631.47;10425693;28;20068;-59
2023/07/18 19:09:50;;;;;;;2.45;0.90;;;;;;;24.11;31.88;99633.16;10409733;28;20152;-59
2023/07/18 19:14:54;;;;;;;2.78;1.00;;;;;;;23.88;32.19;99640.44;10430602;28;20352;-59
2023/07/18 19:19:58;;;;;;;2.53;0.95;;;;;;;23.59;32.56;99635.88;10430252;28;20064;-58
2023/07/18 19:25:00;;;;;;;1.05;0.80;;;;;;;23.44;33.00;99643.03;10428986;28;20170;-59
2023/07/18 19:30:04;;;;;;;3.85;1.15;;;;;;;23.34;33.25;99645.09;10429122;28;20045;-59
2023/07/18 19:35:06;;;;;;;3.38;1.30;;;;;;;22.95;33.78;99655.91;10442441;28;20130;-58
2023/07/18 19:40:09;;;;;;;2.22;1.00;;;;;;;22.77;34.25;99660.69;10430650;28;20044;-59
2023/07/18 19:45:11;;;;;;;4.45;1.98;;;;;;;22.74;34.70;99671.69;10429541;28;20090;-58
2023/07/18 19:50:13;;;;;;;3.70;1.30;;;;;;;22.64;35.03;99682.53;10429976;28;20085;-59
2023/07/18 19:55:16;;;;;;;3.28;1.35;;;;;;;22.45;35.76;99682.97;10429389;28;20083;-58
2023/07/18 20:00:18;;;;;;;1.10;0.88;;;;;;;22.12;36.15;99681.44;10430395;28;20037;-58
2023/07/18 20:05:20;;;;;;;1.30;1.02;;;;;;;22.08;36.31;99682.78;10429140;28;20079;-58
2023/07/18 20:10:22;;;;;;;2.10;0.85;;;;;;;21.56;36.71;99678.81;10430691;28;20056;-58
2023/07/18 20:15:24;;;;;;;2.20;1.30;;;;;;;21.27;37.46;99689.13;10431115;28;20110;-58
2023/07/18 20:20:27;;;;;;;2.72;1.20;;;;;;;21.36;37.27;99688.16;10429951;28;20045;-59
2023/07/18 20:25:30;;;;;;;3.80;1.40;;;;;;;21.38;37.89;99689.66;10408893;28;20047;-58
2023/07/18 20:30:34;;;;;;;1.73;1.13;;;;;;;20.81;38.05;99678.09;10410111;28;20535;-58
2023/07/18 20:35:36;;;;;;;1.70;1.05;;;;;;;20.61;38.63;99673.22;10427813;28;20131;-58
2023/07/18 20:40:39;;;;;;;1.88;1.00;;;;;;;20.74;38.82;99682.38;10424067;28;20051;-59
2023/07/18 20:45:55;;;;;;;2.10;1.00;;;;;;;20.71;40.16;99689.84;10428600;28;20084;-58
2023/07/18 20:51:00;;;;;;;2.10;1.08;;;;;;;20.52;39.52;99688.25;10424746;28;20140;-58
2023/07/18 20:56:02;;;;;;;2.22;1.10;;;;;;;20.36;39.67;99682.88;10419328;28;20048;-58
2023/07/18 21:01:04;;;;;;;1.90;1.13;;;;;;;19.84;40.30;99697.22;10422410;28;20069;-59
2023/07/18 21:06:08;;;;;;;2.53;1.10;;;;;;;19.71;40.54;99696.75;10422476;28;20390;-58
2023/07/18 21:11:10;;;;;;;1.50;0.85;;;;;;;19.79;40.82;99688.84;10428337;28;20464;-58
2023/07/18 21:16:12;;;;;;;2.08;1.20;;;;;;;19.73;40.81;99694.78;10425013;28;20177;-59
2023/07/18 21:21:14;;;;;;;4.72;1.50;;;;;;;19.33;41.26;99690.84;10425297;28;20121;-58
2023/07/18 21:26:16;;;;;;;1.58;0.95;;;;;;;19.34;41.62;99684.53;10423802;28;20067;-59
2023/07/18 21:31:18;;;;;;;4.70;1.30;;;;;;;19.48;41.45;99694.59;10425454;28;20059;-58
2023/07/18 21:36:21;;;;;;;4.40;1.20;;;;;;;19.42;41.55;99694.38;10425913;28;20037;-58
2023/07/18 21:41:23;;;;;;;2.47;1.20;;;;;;;19.33;41.73;99687.34;10422718;28;20144;-58
2023/07/18 21:46:25;;;;;;;4.30;1.13;;;;;;;19.27;42.25;99683.50;10426146;28;20098;-58
2023/07/18 21:51:28;;;;;;;3.13;0.90;;;;;;;19.06;42.47;99677.66;10439424;28;20052;-58
2023/07/18 21:56:30;;;;;;;1.52;1.00;;;;;;;19.04;42.61;99670.84;10424072;28;20437;-58
2023/07/18 22:01:32;;;;;;;2.75;1.20;;;;;;;19.04;42.67;99661.09;10422902;28;20077;-58
2023/07/18 22:06:34;;;;;;;2.88;1.02;;;;;;;18.95;42.94;99664.59;10423476;28;20045;-58
2023/07/18 22:11:36;;;;;;;2.30;1.05;;;;;;;18.81;42.91;99662.47;10423995;28;20053;-58
2023/07/18 22:16:38;;;;;;;1.80;1.08;;;;;;;18.63;43.34;99662.47;10423554;28;20049;-58
2023/07/18 22:21:40;;;;;;;1.90;1.13;;;;;;;18.69;43.24;99666.31;10421449;28;20164;-58
2023/07/18 22:26:42;;;;;;;1.92;0.90;;;;;;;18.37;43.62;99671.25;10423443;28;20051;-58
2023/07/18 22:31:44;;;;;;;5.15;1.23;;;;;;;18.27;44.25;99676.59;10421953;28;20049;-58
2023/07/18 22:36:46;;;;;;;2.28;1.10;;;;;;;18.30;44.24;99675.50;10423895;28;20135;-58
2023/07/18 22:41:48;;;;;;;2.20;1.02;;;;;;;18.22;44.43;99664.81;10422424;28;20044;-58
2023/07/18 22:46:51;;;;;;;1.38;0.95;;;;;;;17.87;44.87;99661.97;10430258;28;20052;-58
2023/07/18 22:51:53;;;;;;;3.17;1.20;;;;;;;17.65;45.36;99666.63;10431036;28;20084;-58
2023/07/18 22:56:55;;;;;;;2.10;1.20;;;;;;;17.76;45.37;99666.47;10432806;28;20430;-58
2023/07/18 23:01:57;;;;;;;1.70;1.15;;;;;;;17.77;45.70;99678.69;10430466;28;20132;-58
2023/07/18 23:06:59;;;;;;;3.05;1.55;;;;;;;17.78;45.76;99669.78;10431348;28;20961;-58
2023/07/18 23:12:20;;;;;;;2.53;1.20;;;;;;;17.76;45.90;99665.63;10431152;28;20056;-58
2023/07/18 23:17:22;;;;;;;1.98;1.10;;;;;;;17.65;45.90;99669.25;10429803;28;20103;-58
2023/07/18 23:22:24;;;;;;;1.85;1.20;;;;;;;17.55;46.43;99668.44;10431443;28;20133;-58